sensor_id;sensor_type;location;lat;lon;timestamp;P1;durP1;ratioP1;P2;durP2;ratioP2
38615;SDS011;24370;51.986;4.666;2023-03-21T00:00:45;34.67;;;18.87;;
38615;SDS011;24370;51.986;4.666;2023-03-21T00:03:12;36.77;;;19.63;;
38615;SDS011;24370;51.986;4.666;2023-03-21T00:05:39;27.17;;;18.20;;
38615;SDS011;24370;51.986;4.666;2023-03-21T00:08:05;30.10;;;18.97;;
38615;SDS011;24370;51.986;4.666;2023-03-21T00:10:30;31.57;;;18.13;;
38615;SDS011;24370;51.986;4.666;2023-03-21T00:12:56;28.73;;;17.67;;
38615;SDS011;24370;51.986;4.666;2023-03-21T00:15:22;29.27;;;19.33;;
38615;SDS011;24370;51.986;4.666;2023-03-21T00:17:50;28.13;;;18.80;;
38615;SDS011;24370;51.986;4.666;2023-03-21T00:20:18;31.10;;;19.43;;
38615;SDS011;24370;51.986;4.666;2023-03-21T00:22:44;24.40;;;17.63;;
38615;SDS011;24370;51.986;4.666;2023-03-21T00:25:10;29.73;;;19.03;;
38615;SDS011;24370;51.986;4.666;2023-03-21T00:27:35;29.63;;;19.03;;
38615;SDS011;24370;51.986;4.666;2023-03-21T00:30:01;34.63;;;20.17;;
38615;SDS011;24370;51.986;4.666;2023-03-21T00:32:28;27.10;;;18.77;;
38615;SDS011;24370;51.986;4.666;2023-03-21T00:34:53;33.40;;;19.63;;
38615;SDS011;24370;51.986;4.666;2023-03-21T00:37:18;35.87;;;20.10;;
38615;SDS011;24370;51.986;4.666;2023-03-21T00:39:46;36.27;;;21.53;;
38615;SDS011;24370;51.986;4.666;2023-03-21T00:42:15;38.93;;;21.77;;
38615;SDS011;24370;51.986;4.666;2023-03-21T00:44:41;34.43;;;22.00;;
38615;SDS011;24370;51.986;4.666;2023-03-21T00:47:07;39.83;;;22.50;;
38615;SDS011;24370;51.986;4.666;2023-03-21T00:49:33;32.43;;;21.97;;
38615;SDS011;24370;51.986;4.666;2023-03-21T00:51:59;39.83;;;21.83;;
38615;SDS011;24370;51.986;4.666;2023-03-21T00:54:25;35.97;;;21.80;;
38615;SDS011;24370;51.986;4.666;2023-03-21T00:56:51;31.87;;;19.87;;
38615;SDS011;24370;51.986;4.666;2023-03-21T00:59:16;33.87;;;19.73;;
38615;SDS011;24370;51.986;4.666;2023-03-21T01:01:42;38.43;;;20.40;;
38615;SDS011;24370;51.986;4.666;2023-03-21T01:04:07;35.60;;;20.67;;
38615;SDS011;24370;51.986;4.666;2023-03-21T01:06:37;34.77;;;20.07;;
38615;SDS011;24370;51.986;4.666;2023-03-21T01:09:03;34.63;;;20.80;;
38615;SDS011;24370;51.986;4.666;2023-03-21T01:11:29;36.33;;;21.63;;
38615;SDS011;24370;51.986;4.666;2023-03-21T01:13:55;40.03;;;21.93;;
38615;SDS011;24370;51.986;4.666;2023-03-21T01:16:21;38.83;;;21.20;;
38615;SDS011;24370;51.986;4.666;2023-03-21T01:18:46;45.80;;;21.77;;
38615;SDS011;24370;51.986;4.666;2023-03-21T01:21:12;41.47;;;22.37;;
38615;SDS011;24370;51.986;4.666;2023-03-21T01:23:39;37.80;;;20.77;;
38615;SDS011;24370;51.986;4.666;2023-03-21T01:26:06;35.43;;;21.03;;
38615;SDS011;24370;51.986;4.666;2023-03-21T01:28:32;41.10;;;21.30;;
38615;SDS011;24370;51.986;4.666;2023-03-21T01:30:59;41.30;;;24.10;;
38615;SDS011;24370;51.986;4.666;2023-03-21T01:33:25;45.97;;;24.20;;
38615;SDS011;24370;51.986;4.666;2023-03-21T01:35:51;44.90;;;23.87;;
38615;SDS011;24370;51.986;4.666;2023-03-21T01:38:16;41.80;;;22.87;;
38615;SDS011;24370;51.986;4.666;2023-03-21T01:40:43;45.70;;;22.10;;
38615;SDS011;24370;51.986;4.666;2023-03-21T01:43:29;44.10;;;20.67;;
38615;SDS011;24370;51.986;4.666;2023-03-21T01:46:43;40.00;;;21.20;;
38615;SDS011;24370;51.986;4.666;2023-03-21T01:51:38;32.07;;;18.73;;
38615;SDS011;24370;51.986;4.666;2023-03-21T01:54:08;34.83;;;19.03;;
38615;SDS011;24370;51.986;4.666;2023-03-21T01:56:39;36.60;;;17.63;;
38615;SDS011;24370;51.986;4.666;2023-03-21T02:01:58;26.93;;;15.13;;
38615;SDS011;24370;51.986;4.666;2023-03-21T02:06:58;28.43;;;12.67;;
38615;SDS011;24370;51.986;4.666;2023-03-21T02:09:29;28.43;;;13.20;;
38615;SDS011;24370;51.986;4.666;2023-03-21T02:11:58;26.23;;;12.40;;
38615;SDS011;24370;51.986;4.666;2023-03-21T02:14:24;23.20;;;12.30;;
38615;SDS011;24370;51.986;4.666;2023-03-21T02:17:00;25.83;;;13.57;;
38615;SDS011;24370;51.986;4.666;2023-03-21T02:27:54;30.83;;;13.93;;
38615;SDS011;24370;51.986;4.666;2023-03-21T02:36:16;32.77;;;15.13;;
38615;SDS011;24370;51.986;4.666;2023-03-21T02:46:52;31.87;;;15.23;;
38615;SDS011;24370;51.986;4.666;2023-03-21T02:52:13;28.23;;;14.77;;
38615;SDS011;24370;51.986;4.666;2023-03-21T02:54:42;34.77;;;16.47;;
38615;SDS011;24370;51.986;4.666;2023-03-21T02:57:09;29.40;;;14.63;;
38615;SDS011;24370;51.986;4.666;2023-03-21T02:59:35;33.27;;;15.10;;
38615;SDS011;24370;51.986;4.666;2023-03-21T03:02:03;26.87;;;14.40;;
38615;SDS011;24370;51.986;4.666;2023-03-21T03:04:29;26.93;;;14.00;;
38615;SDS011;24370;51.986;4.666;2023-03-21T03:23:05;28.87;;;13.53;;
38615;SDS011;24370;51.986;4.666;2023-03-21T03:26:01;26.05;;;13.70;;
38615;SDS011;24370;51.986;4.666;2023-03-21T03:28:38;30.30;;;12.57;;
38615;SDS011;24370;51.986;4.666;2023-03-21T03:31:09;24.60;;;12.90;;
38615;SDS011;24370;51.986;4.666;2023-03-21T03:33:39;30.43;;;13.57;;
38615;SDS011;24370;51.986;4.666;2023-03-21T03:36:08;29.03;;;12.50;;
38615;SDS011;24370;51.986;4.666;2023-03-21T03:38:36;28.50;;;13.20;;
38615;SDS011;24370;51.986;4.666;2023-03-21T03:41:15;23.23;;;12.40;;
38615;SDS011;24370;51.986;4.666;2023-03-21T03:43:45;28.90;;;13.40;;
38615;SDS011;24370;51.986;4.666;2023-03-21T03:46:21;35.77;;;15.73;;
38615;SDS011;24370;51.986;4.666;2023-03-21T03:48:55;32.57;;;14.13;;
38615;SDS011;24370;51.986;4.666;2023-03-21T03:51:26;37.03;;;14.33;;
38615;SDS011;24370;51.986;4.666;2023-03-21T03:54:01;29.43;;;14.33;;
38615;SDS011;24370;51.986;4.666;2023-03-21T03:56:34;27.80;;;12.47;;
38615;SDS011;24370;51.986;4.666;2023-03-21T03:59:01;31.67;;;13.73;;
38615;SDS011;24370;51.986;4.666;2023-03-21T04:01:29;27.63;;;13.00;;
38615;SDS011;24370;51.986;4.666;2023-03-21T04:03:54;32.40;;;12.77;;
38615;SDS011;24370;51.986;4.666;2023-03-21T04:06:20;30.50;;;13.70;;
38615;SDS011;24370;51.986;4.666;2023-03-21T04:08:46;27.20;;;14.53;;
38615;SDS011;24370;51.986;4.666;2023-03-21T04:11:12;25.93;;;13.73;;
38615;SDS011;24370;51.986;4.666;2023-03-21T04:13:42;27.40;;;14.80;;
38615;SDS011;24370;51.986;4.666;2023-03-21T04:16:08;36.80;;;14.17;;
38615;SDS011;24370;51.986;4.666;2023-03-21T04:18:34;31.10;;;14.80;;
38615;SDS011;24370;51.986;4.666;2023-03-21T04:20:59;25.23;;;13.27;;
38615;SDS011;24370;51.986;4.666;2023-03-21T04:23:25;36.07;;;14.60;;
38615;SDS011;24370;51.986;4.666;2023-03-21T04:25:50;29.93;;;14.63;;
38615;SDS011;24370;51.986;4.666;2023-03-21T04:28:16;26.87;;;14.70;;
38615;SDS011;24370;51.986;4.666;2023-03-21T04:30:41;35.77;;;15.40;;
38615;SDS011;24370;51.986;4.666;2023-03-21T04:33:07;29.60;;;15.50;;
38615;SDS011;24370;51.986;4.666;2023-03-21T04:35:32;29.10;;;14.87;;
38615;SDS011;24370;51.986;4.666;2023-03-21T04:38:00;35.80;;;16.07;;
38615;SDS011;24370;51.986;4.666;2023-03-21T04:40:26;32.47;;;16.00;;
38615;SDS011;24370;51.986;4.666;2023-03-21T04:42:51;31.00;;;15.77;;
38615;SDS011;24370;51.986;4.666;2023-03-21T04:45:17;35.87;;;17.27;;
38615;SDS011;24370;51.986;4.666;2023-03-21T04:47:42;32.30;;;15.10;;
38615;SDS011;24370;51.986;4.666;2023-03-21T04:50:08;35.73;;;15.57;;
38615;SDS011;24370;51.986;4.666;2023-03-21T04:52:34;28.40;;;15.37;;
38615;SDS011;24370;51.986;4.666;2023-03-21T04:55:00;31.73;;;16.47;;
38615;SDS011;24370;51.986;4.666;2023-03-21T04:57:26;32.97;;;16.43;;
38615;SDS011;24370;51.986;4.666;2023-03-21T04:59:51;37.17;;;17.43;;
38615;SDS011;24370;51.986;4.666;2023-03-21T05:02:16;33.63;;;17.10;;
38615;SDS011;24370;51.986;4.666;2023-03-21T05:04:42;36.27;;;17.33;;
38615;SDS011;24370;51.986;4.666;2023-03-21T05:07:07;34.40;;;17.27;;
38615;SDS011;24370;51.986;4.666;2023-03-21T05:09:33;35.20;;;17.87;;
38615;SDS011;24370;51.986;4.666;2023-03-21T05:11:58;35.53;;;17.37;;
38615;SDS011;24370;51.986;4.666;2023-03-21T05:14:24;37.50;;;17.77;;
38615;SDS011;24370;51.986;4.666;2023-03-21T05:16:51;42.47;;;18.20;;
38615;SDS011;24370;51.986;4.666;2023-03-21T05:19:18;39.03;;;17.97;;
38615;SDS011;24370;51.986;4.666;2023-03-21T05:21:46;36.53;;;16.93;;
38615;SDS011;24370;51.986;4.666;2023-03-21T05:24:13;33.20;;;17.93;;
38615;SDS011;24370;51.986;4.666;2023-03-21T05:26:44;35.30;;;17.07;;
38615;SDS011;24370;51.986;4.666;2023-03-21T05:29:16;28.38;;;15.80;;
38615;SDS011;24370;51.986;4.666;2023-03-21T05:31:43;37.37;;;17.23;;
38615;SDS011;24370;51.986;4.666;2023-03-21T05:34:09;29.47;;;17.00;;
38615;SDS011;24370;51.986;4.666;2023-03-21T05:36:35;32.23;;;15.87;;
38615;SDS011;24370;51.986;4.666;2023-03-21T05:39:01;31.47;;;16.07;;
38615;SDS011;24370;51.986;4.666;2023-03-21T05:41:26;34.33;;;16.73;;
38615;SDS011;24370;51.986;4.666;2023-03-21T05:43:52;37.40;;;16.93;;
38615;SDS011;24370;51.986;4.666;2023-03-21T05:46:17;35.53;;;18.73;;
38615;SDS011;24370;51.986;4.666;2023-03-21T05:48:42;35.60;;;16.80;;
38615;SDS011;24370;51.986;4.666;2023-03-21T05:51:08;34.10;;;17.10;;
38615;SDS011;24370;51.986;4.666;2023-03-21T05:53:33;38.10;;;15.93;;
38615;SDS011;24370;51.986;4.666;2023-03-21T05:55:59;33.70;;;15.40;;
38615;SDS011;24370;51.986;4.666;2023-03-21T05:58:24;29.20;;;16.50;;
38615;SDS011;24370;51.986;4.666;2023-03-21T06:00:50;37.33;;;15.80;;
38615;SDS011;24370;51.986;4.666;2023-03-21T06:03:15;33.90;;;15.07;;
38615;SDS011;24370;51.986;4.666;2023-03-21T06:05:41;33.93;;;15.40;;
38615;SDS011;24370;51.986;4.666;2023-03-21T06:08:06;33.73;;;14.80;;
38615;SDS011;24370;51.986;4.666;2023-03-21T06:10:31;30.53;;;15.07;;
38615;SDS011;24370;51.986;4.666;2023-03-21T06:12:57;35.40;;;15.00;;
38615;SDS011;24370;51.986;4.666;2023-03-21T06:15:22;38.90;;;14.70;;
38615;SDS011;24370;51.986;4.666;2023-03-21T06:17:48;34.77;;;14.87;;
38615;SDS011;24370;51.986;4.666;2023-03-21T06:20:14;30.60;;;13.73;;
38615;SDS011;24370;51.986;4.666;2023-03-21T06:22:39;30.20;;;14.20;;
38615;SDS011;24370;51.986;4.666;2023-03-21T06:25:05;29.37;;;14.37;;
38615;SDS011;24370;51.986;4.666;2023-03-21T06:27:32;37.60;;;15.43;;
38615;SDS011;24370;51.986;4.666;2023-03-21T06:29:58;38.70;;;14.20;;
38615;SDS011;24370;51.986;4.666;2023-03-21T06:32:24;32.17;;;13.93;;
38615;SDS011;24370;51.986;4.666;2023-03-21T06:34:50;30.90;;;14.70;;
38615;SDS011;24370;51.986;4.666;2023-03-21T06:37:16;32.40;;;13.83;;
38615;SDS011;24370;51.986;4.666;2023-03-21T06:39:41;28.20;;;13.80;;
38615;SDS011;24370;51.986;4.666;2023-03-21T06:42:07;28.80;;;13.20;;
38615;SDS011;24370;51.986;4.666;2023-03-21T06:44:32;30.77;;;13.13;;
38615;SDS011;24370;51.986;4.666;2023-03-21T06:46:58;27.77;;;13.37;;
38615;SDS011;24370;51.986;4.666;2023-03-21T06:49:23;28.93;;;14.03;;
38615;SDS011;24370;51.986;4.666;2023-03-21T06:51:50;29.13;;;13.97;;
38615;SDS011;24370;51.986;4.666;2023-03-21T06:54:15;29.47;;;12.23;;
38615;SDS011;24370;51.986;4.666;2023-03-21T06:56:42;30.70;;;12.67;;
38615;SDS011;24370;51.986;4.666;2023-03-21T06:59:08;31.23;;;13.23;;
38615;SDS011;24370;51.986;4.666;2023-03-21T07:01:33;29.23;;;12.40;;
38615;SDS011;24370;51.986;4.666;2023-03-21T07:03:59;28.90;;;12.47;;
38615;SDS011;24370;51.986;4.666;2023-03-21T07:06:26;33.93;;;12.97;;
38615;SDS011;24370;51.986;4.666;2023-03-21T07:08:52;27.10;;;12.47;;
38615;SDS011;24370;51.986;4.666;2023-03-21T07:11:18;24.90;;;12.23;;
38615;SDS011;24370;51.986;4.666;2023-03-21T07:13:44;23.97;;;11.77;;
38615;SDS011;24370;51.986;4.666;2023-03-21T07:16:09;27.57;;;12.67;;
38615;SDS011;24370;51.986;4.666;2023-03-21T07:18:35;33.23;;;12.30;;
38615;SDS011;24370;51.986;4.666;2023-03-21T07:21:01;26.40;;;11.60;;
38615;SDS011;24370;51.986;4.666;2023-03-21T07:23:26;29.50;;;12.43;;
38615;SDS011;24370;51.986;4.666;2023-03-21T07:25:52;26.07;;;10.97;;
38615;SDS011;24370;51.986;4.666;2023-03-21T07:28:18;25.93;;;11.67;;
38615;SDS011;24370;51.986;4.666;2023-03-21T07:30:44;26.50;;;11.20;;
38615;SDS011;24370;51.986;4.666;2023-03-21T07:33:10;26.67;;;11.43;;
38615;SDS011;24370;51.986;4.666;2023-03-21T07:35:36;33.83;;;12.80;;
38615;SDS011;24370;51.986;4.666;2023-03-21T07:38:03;36.97;;;12.87;;
38615;SDS011;24370;51.986;4.666;2023-03-21T07:40:29;35.77;;;13.30;;
38615;SDS011;24370;51.986;4.666;2023-03-21T07:42:55;31.77;;;12.33;;
38615;SDS011;24370;51.986;4.666;2023-03-21T07:45:20;32.87;;;13.37;;
38615;SDS011;24370;51.986;4.666;2023-03-21T07:47:49;25.77;;;11.60;;
38615;SDS011;24370;51.986;4.666;2023-03-21T07:50:15;29.80;;;12.73;;
38615;SDS011;24370;51.986;4.666;2023-03-21T07:52:41;30.30;;;12.77;;
38615;SDS011;24370;51.986;4.666;2023-03-21T07:55:07;26.97;;;11.50;;
38615;SDS011;24370;51.986;4.666;2023-03-21T07:57:33;29.00;;;11.40;;
38615;SDS011;24370;51.986;4.666;2023-03-21T07:59:58;23.77;;;11.83;;
38615;SDS011;24370;51.986;4.666;2023-03-21T08:02:24;33.93;;;12.60;;
38615;SDS011;24370;51.986;4.666;2023-03-21T08:04:49;31.03;;;11.10;;
38615;SDS011;24370;51.986;4.666;2023-03-21T08:07:15;26.53;;;11.80;;
38615;SDS011;24370;51.986;4.666;2023-03-21T08:09:41;23.43;;;10.23;;
38615;SDS011;24370;51.986;4.666;2023-03-21T08:12:07;19.83;;;9.70;;
38615;SDS011;24370;51.986;4.666;2023-03-21T08:14:33;28.70;;;10.40;;
38615;SDS011;24370;51.986;4.666;2023-03-21T08:16:58;23.47;;;10.77;;
38615;SDS011;24370;51.986;4.666;2023-03-21T08:19:24;22.90;;;10.90;;
38615;SDS011;24370;51.986;4.666;2023-03-21T08:21:51;22.83;;;9.53;;
38615;SDS011;24370;51.986;4.666;2023-03-21T08:24:17;19.63;;;8.67;;
38615;SDS011;24370;51.986;4.666;2023-03-21T08:26:42;15.60;;;8.43;;
38615;SDS011;24370;51.986;4.666;2023-03-21T08:29:09;18.27;;;8.57;;
38615;SDS011;24370;51.986;4.666;2023-03-21T08:31:35;16.53;;;7.40;;
38615;SDS011;24370;51.986;4.666;2023-03-21T08:34:01;15.33;;;7.53;;
38615;SDS011;24370;51.986;4.666;2023-03-21T08:36:26;21.77;;;8.30;;
38615;SDS011;24370;51.986;4.666;2023-03-21T08:38:52;19.20;;;8.00;;
38615;SDS011;24370;51.986;4.666;2023-03-21T08:41:21;23.07;;;10.17;;
38615;SDS011;24370;51.986;4.666;2023-03-21T08:43:48;25.13;;;9.80;;
38615;SDS011;24370;51.986;4.666;2023-03-21T08:46:14;24.33;;;9.20;;
38615;SDS011;24370;51.986;4.666;2023-03-21T08:48:40;21.00;;;9.37;;
38615;SDS011;24370;51.986;4.666;2023-03-21T08:51:06;26.30;;;9.43;;
38615;SDS011;24370;51.986;4.666;2023-03-21T08:53:31;21.07;;;9.57;;
38615;SDS011;24370;51.986;4.666;2023-03-21T08:55:57;17.77;;;8.10;;
38615;SDS011;24370;51.986;4.666;2023-03-21T08:58:23;19.30;;;9.27;;
38615;SDS011;24370;51.986;4.666;2023-03-21T09:00:48;25.50;;;9.40;;
38615;SDS011;24370;51.986;4.666;2023-03-21T09:03:14;17.37;;;9.73;;
38615;SDS011;24370;51.986;4.666;2023-03-21T09:05:40;17.43;;;8.53;;
38615;SDS011;24370;51.986;4.666;2023-03-21T09:08:05;14.13;;;7.20;;
38615;SDS011;24370;51.986;4.666;2023-03-21T09:10:31;19.70;;;8.37;;
38615;SDS011;24370;51.986;4.666;2023-03-21T09:12:56;18.20;;;8.17;;
38615;SDS011;24370;51.986;4.666;2023-03-21T09:15:24;16.43;;;7.93;;
38615;SDS011;24370;51.986;4.666;2023-03-21T09:17:52;17.33;;;8.43;;
38615;SDS011;24370;51.986;4.666;2023-03-21T09:20:21;19.95;;;8.60;;
38615;SDS011;24370;51.986;4.666;2023-03-21T09:22:55;21.38;;;8.85;;
38615;SDS011;24370;51.986;4.666;2023-03-21T09:25:20;23.38;;;8.10;;
38615;SDS011;24370;51.986;4.666;2023-03-21T09:27:46;18.33;;;8.63;;
38615;SDS011;24370;51.986;4.666;2023-03-21T09:30:12;20.97;;;8.07;;
38615;SDS011;24370;51.986;4.666;2023-03-21T09:32:40;22.58;;;9.10;;
38615;SDS011;24370;51.986;4.666;2023-03-21T09:35:06;16.80;;;8.07;;
38615;SDS011;24370;51.986;4.666;2023-03-21T09:37:34;17.63;;;7.90;;
38615;SDS011;24370;51.986;4.666;2023-03-21T09:40:06;26.00;;;9.07;;
38615;SDS011;24370;51.986;4.666;2023-03-21T09:48:14;22.00;;;8.60;;
38615;SDS011;24370;51.986;4.666;2023-03-21T09:50:50;22.83;;;9.00;;
38615;SDS011;24370;51.986;4.666;2023-03-21T09:53:27;15.05;;;8.68;;
38615;SDS011;24370;51.986;4.666;2023-03-21T09:55:57;22.52;;;10.55;;
38615;SDS011;24370;51.986;4.666;2023-03-21T10:03:46;17.25;;;9.40;;
38615;SDS011;24370;51.986;4.666;2023-03-21T10:06:14;20.42;;;9.77;;
38615;SDS011;24370;51.986;4.666;2023-03-21T10:08:41;15.27;;;8.90;;
38615;SDS011;24370;51.986;4.666;2023-03-21T10:11:12;15.30;;;9.17;;
38615;SDS011;24370;51.986;4.666;2023-03-21T10:13:52;17.67;;;8.93;;
38615;SDS011;24370;51.986;4.666;2023-03-21T10:16:28;15.73;;;9.10;;
38615;SDS011;24370;51.986;4.666;2023-03-21T10:18:59;18.73;;;8.50;;
38615;SDS011;24370;51.986;4.666;2023-03-21T10:21:29;21.00;;;9.63;;
38615;SDS011;24370;51.986;4.666;2023-03-21T10:23:56;18.77;;;10.00;;
38615;SDS011;24370;51.986;4.666;2023-03-21T10:26:24;20.60;;;9.17;;
38615;SDS011;24370;51.986;4.666;2023-03-21T10:28:54;19.83;;;8.77;;
38615;SDS011;24370;51.986;4.666;2023-03-21T10:31:23;20.80;;;9.23;;
38615;SDS011;24370;51.986;4.666;2023-03-21T10:33:51;21.85;;;8.98;;
38615;SDS011;24370;51.986;4.666;2023-03-21T10:36:21;19.37;;;9.00;;
38615;SDS011;24370;51.986;4.666;2023-03-21T10:41:19;19.63;;;9.13;;
38615;SDS011;24370;51.986;4.666;2023-03-21T10:43:45;19.70;;;9.50;;
38615;SDS011;24370;51.986;4.666;2023-03-21T10:46:19;21.75;;;9.75;;
38615;SDS011;24370;51.986;4.666;2023-03-21T10:48:49;22.93;;;10.57;;
38615;SDS011;24370;51.986;4.666;2023-03-21T10:51:18;17.50;;;9.50;;
38615;SDS011;24370;51.986;4.666;2023-03-21T10:53:51;23.35;;;9.65;;
38615;SDS011;24370;51.986;4.666;2023-03-21T10:56:21;22.05;;;8.40;;
38615;SDS011;24370;51.986;4.666;2023-03-21T10:58:50;15.55;;;7.90;;
38615;SDS011;24370;51.986;4.666;2023-03-21T11:01:23;19.08;;;8.13;;
38615;SDS011;24370;51.986;4.666;2023-03-21T11:04:00;18.77;;;8.20;;
38615;SDS011;24370;51.986;4.666;2023-03-21T11:06:32;19.77;;;7.93;;
38615;SDS011;24370;51.986;4.666;2023-03-21T11:09:17;13.40;;;8.52;;
38615;SDS011;24370;51.986;4.666;2023-03-21T11:11:53;16.25;;;8.48;;
38615;SDS011;24370;51.986;4.666;2023-03-21T11:14:30;17.33;;;7.70;;
38615;SDS011;24370;51.986;4.666;2023-03-21T11:16:58;14.02;;;7.28;;
38615;SDS011;24370;51.986;4.666;2023-03-21T11:19:34;14.23;;;7.53;;
38615;SDS011;24370;51.986;4.666;2023-03-21T11:22:06;13.60;;;8.13;;
38615;SDS011;24370;51.986;4.666;2023-03-21T11:24:32;15.88;;;7.75;;
38615;SDS011;24370;51.986;4.666;2023-03-21T11:27:00;19.50;;;8.45;;
38615;SDS011;24370;51.986;4.666;2023-03-21T11:29:37;14.77;;;7.60;;
38615;SDS011;24370;51.986;4.666;2023-03-21T11:32:12;13.77;;;7.38;;
38615;SDS011;24370;51.986;4.666;2023-03-21T11:37:31;14.15;;;7.45;;
38615;SDS011;24370;51.986;4.666;2023-03-21T11:40:05;16.02;;;7.47;;
38615;SDS011;24370;51.986;4.666;2023-03-21T11:42:32;16.50;;;7.88;;
38615;SDS011;24370;51.986;4.666;2023-03-21T11:48:07;11.63;;;6.57;;
38615;SDS011;24370;51.986;4.666;2023-03-21T11:50:41;18.85;;;6.55;;
38615;SDS011;24370;51.986;4.666;2023-03-21T11:56:19;13.10;;;6.80;;
38615;SDS011;24370;51.986;4.666;2023-03-21T11:59:07;13.05;;;6.93;;
38615;SDS011;24370;51.986;4.666;2023-03-21T12:06:59;13.95;;;6.82;;
38615;SDS011;24370;51.986;4.666;2023-03-21T12:09:55;18.05;;;7.65;;
38615;SDS011;24370;51.986;4.666;2023-03-21T12:12:37;14.95;;;8.20;;
38615;SDS011;24370;51.986;4.666;2023-03-21T12:20:29;14.65;;;8.13;;
38615;SDS011;24370;51.986;4.666;2023-03-21T12:25:41;13.32;;;7.00;;
38615;SDS011;24370;51.986;4.666;2023-03-21T12:36:51;11.82;;;6.43;;
38615;SDS011;24370;51.986;4.666;2023-03-21T12:39:38;11.75;;;6.55;;
38615;SDS011;24370;51.986;4.666;2023-03-21T12:45:16;12.68;;;6.97;;
38615;SDS011;24370;51.986;4.666;2023-03-21T12:47:50;10.48;;;7.35;;
38615;SDS011;24370;51.986;4.666;2023-03-21T12:50:41;11.68;;;7.60;;
38615;SDS011;24370;51.986;4.666;2023-03-21T12:56:00;12.05;;;7.15;;
38615;SDS011;24370;51.986;4.666;2023-03-21T12:58:28;11.45;;;7.72;;
38615;SDS011;24370;51.986;4.666;2023-03-21T13:00:59;15.35;;;7.68;;
38615;SDS011;24370;51.986;4.666;2023-03-21T13:03:31;21.08;;;8.38;;
38615;SDS011;24370;51.986;4.666;2023-03-21T13:06:02;17.60;;;8.35;;
38615;SDS011;24370;51.986;4.666;2023-03-21T13:11:09;14.48;;;8.27;;
38615;SDS011;24370;51.986;4.666;2023-03-21T13:21:45;14.00;;;7.10;;
38615;SDS011;24370;51.986;4.666;2023-03-21T13:24:17;15.20;;;7.65;;
38615;SDS011;24370;51.986;4.666;2023-03-21T13:26:56;13.77;;;6.70;;
38615;SDS011;24370;51.986;4.666;2023-03-21T13:29:30;15.23;;;7.88;;
38615;SDS011;24370;51.986;4.666;2023-03-21T13:32:19;20.45;;;8.30;;
38615;SDS011;24370;51.986;4.666;2023-03-21T13:37:51;10.55;;;6.25;;
38615;SDS011;24370;51.986;4.666;2023-03-21T13:40:37;15.68;;;6.90;;
38615;SDS011;24370;51.986;4.666;2023-03-21T13:46:13;18.85;;;6.95;;
38615;SDS011;24370;51.986;4.666;2023-03-21T13:48:59;13.43;;;6.70;;
38615;SDS011;24370;51.986;4.666;2023-03-21T13:59:09;14.25;;;7.32;;
38615;SDS011;24370;51.986;4.666;2023-03-21T14:01:37;11.38;;;6.75;;
38615;SDS011;24370;51.986;4.666;2023-03-21T14:04:17;14.02;;;6.65;;
38615;SDS011;24370;51.986;4.666;2023-03-21T14:10:15;10.43;;;6.15;;
38615;SDS011;24370;51.986;4.666;2023-03-21T14:12:13;13.25;;;6.40;;
38615;SDS011;24370;51.986;4.666;2023-03-21T14:14:41;9.57;;;6.80;;
38615;SDS011;24370;51.986;4.666;2023-03-21T14:17:14;14.45;;;6.88;;
38615;SDS011;24370;51.986;4.666;2023-03-21T14:19:50;13.85;;;6.50;;
38615;SDS011;24370;51.986;4.666;2023-03-21T14:22:18;11.38;;;7.15;;
38615;SDS011;24370;51.986;4.666;2023-03-21T14:24:47;12.10;;;6.78;;
38615;SDS011;24370;51.986;4.666;2023-03-21T14:27:13;11.02;;;6.55;;
38615;SDS011;24370;51.986;4.666;2023-03-21T14:29:39;13.70;;;6.70;;
38615;SDS011;24370;51.986;4.666;2023-03-21T14:32:05;11.40;;;6.55;;
38615;SDS011;24370;51.986;4.666;2023-03-21T14:34:41;9.68;;;6.25;;
38615;SDS011;24370;51.986;4.666;2023-03-21T14:37:10;12.70;;;6.72;;
38615;SDS011;24370;51.986;4.666;2023-03-21T14:39:35;11.98;;;5.85;;
38615;SDS011;24370;51.986;4.666;2023-03-21T14:42:05;14.57;;;6.15;;
38615;SDS011;24370;51.986;4.666;2023-03-21T14:44:33;12.90;;;6.00;;
38615;SDS011;24370;51.986;4.666;2023-03-21T14:47:06;16.05;;;6.10;;
38615;SDS011;24370;51.986;4.666;2023-03-21T14:49:41;12.27;;;5.65;;
38615;SDS011;24370;51.986;4.666;2023-03-21T14:52:09;12.82;;;6.22;;
38615;SDS011;24370;51.986;4.666;2023-03-21T14:54:44;13.75;;;6.13;;
38615;SDS011;24370;51.986;4.666;2023-03-21T14:57:12;10.50;;;5.40;;
38615;SDS011;24370;51.986;4.666;2023-03-21T14:59:40;10.68;;;5.57;;
38615;SDS011;24370;51.986;4.666;2023-03-21T15:02:16;16.20;;;6.22;;
38615;SDS011;24370;51.986;4.666;2023-03-21T15:04:47;14.57;;;5.47;;
38615;SDS011;24370;51.986;4.666;2023-03-21T15:07:22;14.48;;;5.75;;
38615;SDS011;24370;51.986;4.666;2023-03-21T15:09:53;10.38;;;5.55;;
38615;SDS011;24370;51.986;4.666;2023-03-21T15:12:20;7.68;;;5.22;;
38615;SDS011;24370;51.986;4.666;2023-03-21T15:14:45;14.02;;;5.93;;
38615;SDS011;24370;51.986;4.666;2023-03-21T15:17:11;11.63;;;5.82;;
38615;SDS011;24370;51.986;4.666;2023-03-21T15:19:37;9.82;;;5.28;;
38615;SDS011;24370;51.986;4.666;2023-03-21T15:22:08;10.35;;;5.88;;
38615;SDS011;24370;51.986;4.666;2023-03-21T15:24:40;9.40;;;5.30;;
38615;SDS011;24370;51.986;4.666;2023-03-21T15:27:13;8.48;;;5.07;;
38615;SDS011;24370;51.986;4.666;2023-03-21T15:29:43;15.48;;;5.40;;
38615;SDS011;24370;51.986;4.666;2023-03-21T15:32:13;7.38;;;5.18;;
38615;SDS011;24370;51.986;4.666;2023-03-21T15:34:41;10.63;;;6.17;;
38615;SDS011;24370;51.986;4.666;2023-03-21T15:37:08;11.40;;;5.27;;
38615;SDS011;24370;51.986;4.666;2023-03-21T15:39:41;7.57;;;5.07;;
38615;SDS011;24370;51.986;4.666;2023-03-21T15:45:22;9.90;;;5.50;;
38615;SDS011;24370;51.986;4.666;2023-03-21T15:48:05;7.60;;;5.65;;
38615;SDS011;24370;51.986;4.666;2023-03-21T15:51:10;6.78;;;4.03;;
38615;SDS011;24370;51.986;4.666;2023-03-21T15:53:30;7.68;;;3.80;;
38615;SDS011;24370;51.986;4.666;2023-03-21T15:55:58;10.18;;;4.07;;
38615;SDS011;24370;51.986;4.666;2023-03-21T15:58:33;8.30;;;4.18;;
38615;SDS011;24370;51.986;4.666;2023-03-21T16:03:30;6.43;;;3.65;;
38615;SDS011;24370;51.986;4.666;2023-03-21T16:09:21;9.02;;;4.05;;
38615;SDS011;24370;51.986;4.666;2023-03-21T16:14:07;9.90;;;3.90;;
38615;SDS011;24370;51.986;4.666;2023-03-21T16:16:34;5.15;;;3.72;;
38615;SDS011;24370;51.986;4.666;2023-03-21T16:19:00;8.70;;;4.38;;
38615;SDS011;24370;51.986;4.666;2023-03-21T16:21:27;10.30;;;4.00;;
38615;SDS011;24370;51.986;4.666;2023-03-21T16:23:55;7.00;;;4.57;;
38615;SDS011;24370;51.986;4.666;2023-03-21T16:26:23;10.38;;;4.18;;
38615;SDS011;24370;51.986;4.666;2023-03-21T16:28:51;9.40;;;4.72;;
38615;SDS011;24370;51.986;4.666;2023-03-21T16:31:22;9.23;;;4.35;;
38615;SDS011;24370;51.986;4.666;2023-03-21T16:33:51;10.20;;;4.72;;
38615;SDS011;24370;51.986;4.666;2023-03-21T16:36:18;10.52;;;4.38;;
38615;SDS011;24370;51.986;4.666;2023-03-21T16:38:57;6.47;;;4.35;;
38615;SDS011;24370;51.986;4.666;2023-03-21T16:41:24;7.95;;;4.43;;
38615;SDS011;24370;51.986;4.666;2023-03-21T16:43:50;5.60;;;3.67;;
38615;SDS011;24370;51.986;4.666;2023-03-21T16:46:18;10.25;;;4.43;;
38615;SDS011;24370;51.986;4.666;2023-03-21T16:48:46;7.50;;;3.85;;
38615;SDS011;24370;51.986;4.666;2023-03-21T16:51:16;7.20;;;4.38;;
38615;SDS011;24370;51.986;4.666;2023-03-21T16:53:45;6.13;;;3.70;;
38615;SDS011;24370;51.986;4.666;2023-03-21T16:56:22;12.55;;;3.95;;